sensor_id;sensor_type;location;lat;lon;timestamp;pressure;altitude;pressure_sealevel;temperature;humidity
70302;BME280;57706;56.326;43.882;2022-09-03T00:02:40;100771.66;;;8.52;78.25
70302;BME280;57706;56.326;43.882;2022-09-03T00:05:22;100781.56;;;8.59;78.21
70302;BME280;57706;56.326;43.882;2022-09-03T00:10:46;100783.75;;;8.44;79.04
70302;BME280;57706;56.326;43.882;2022-09-03T00:13:21;100789.97;;;8.43;79.22
70302;BME280;57706;56.326;43.882;2022-09-03T00:15:49;100790.66;;;8.35;79.79
70302;BME280;57706;56.326;43.882;2022-09-03T00:18:19;100804.03;;;8.32;79.76
70302;BME280;57706;56.326;43.882;2022-09-03T00:21:01;100799.59;;;8.12;80.87
70302;BME280;57706;56.326;43.882;2022-09-03T00:23:36;100802.09;;;8.14;80.94
70302;BME280;57706;56.326;43.882;2022-09-03T00:29:00;100812.16;;;8.29;80.12
70302;BME280;57706;56.326;43.882;2022-09-03T00:31:40;100815.59;;;8.09;81.24
70302;BME280;57706;56.326;43.882;2022-09-03T00:34:15;100816.28;;;8.21;80.78
70302;BME280;57706;56.326;43.882;2022-09-03T00:36:45;100819.75;;;8.22;80.69
70302;BME280;57706;56.326;43.882;2022-09-03T00:39:14;100825.22;;;8.09;81.04
70302;BME280;57706;56.326;43.882;2022-09-03T00:47:03;100839.28;;;8.18;80.96
70302;BME280;57706;56.326;43.882;2022-09-03T00:55:10;100835.44;;;8.12;81.19
70302;BME280;57706;56.326;43.882;2022-09-03T00:57:56;100852.25;;;8.19;80.97
70302;BME280;57706;56.326;43.882;2022-09-03T01:00:43;100839.84;;;8.21;80.72
70302;BME280;57706;56.326;43.882;2022-09-03T01:03:15;100843.97;;;8.14;81.34
70302;BME280;57706;56.326;43.882;2022-09-03T01:09:06;100847.84;;;8.30;80.45
70302;BME280;57706;56.326;43.882;2022-09-03T01:14:33;100848.09;;;8.07;81.38
70302;BME280;57706;56.326;43.882;2022-09-03T01:20:11;100858.72;;;8.05;81.93
70302;BME280;57706;56.326;43.882;2022-09-03T01:25:53;100859.41;;;8.17;81.48
70302;BME280;57706;56.326;43.882;2022-09-03T01:38:41;100869.66;;;8.40;80.48
70302;BME280;57706;56.326;43.882;2022-09-03T01:52:15;100889.94;;;8.58;79.73
70302;BME280;57706;56.326;43.882;2022-09-03T01:55:30;100889.94;;;8.58;79.62
70302;BME280;57706;56.326;43.882;2022-09-03T01:57:59;100887.91;;;8.51;79.88
70302;BME280;57706;56.326;43.882;2022-09-03T02:00:29;100886.34;;;8.49;79.95
70302;BME280;57706;56.326;43.882;2022-09-03T02:03:01;100892.53;;;8.38;80.36
70302;BME280;57706;56.326;43.882;2022-09-03T02:05:30;100885.34;;;8.40;80.22
70302;BME280;57706;56.326;43.882;2022-09-03T02:08:02;100902.72;;;8.41;80.46
70302;BME280;57706;56.326;43.882;2022-09-03T02:13:10;100895.19;;;8.58;79.89
70302;BME280;57706;56.326;43.882;2022-09-03T02:15:40;100909.25;;;8.57;79.87
70302;BME280;57706;56.326;43.882;2022-09-03T02:18:09;100913.56;;;8.67;79.43
70302;BME280;57706;56.326;43.882;2022-09-03T02:20:38;100917.94;;;8.67;79.35
70302;BME280;57706;56.326;43.882;2022-09-03T02:23:04;100911.19;;;8.74;79.18
70302;BME280;57706;56.326;43.882;2022-09-03T02:25:40;100918.78;;;8.87;78.47
70302;BME280;57706;56.326;43.882;2022-09-03T02:28:07;100921.00;;;8.92;78.47
70302;BME280;57706;56.326;43.882;2022-09-03T02:30:34;100921.53;;;8.95;78.35
70302;BME280;57706;56.326;43.882;2022-09-03T02:32:59;100927.34;;;8.99;78.03
70302;BME280;57706;56.326;43.882;2022-09-03T02:35:26;100925.97;;;9.05;77.77
70302;BME280;57706;56.326;43.882;2022-09-03T02:38:16;100929.28;;;8.97;78.00
70302;BME280;57706;56.326;43.882;2022-09-03T02:40:43;100926.50;;;9.08;77.70
70302;BME280;57706;56.326;43.882;2022-09-03T02:44:17;100926.38;;;9.00;77.97
70302;BME280;57706;56.326;43.882;2022-09-03T02:49:06;100937.00;;;9.28;76.73
70302;BME280;57706;56.326;43.882;2022-09-03T02:51:38;100956.88;;;9.31;76.70
70302;BME280;57706;56.326;43.882;2022-09-03T02:54:05;100958.09;;;9.17;77.01
70302;BME280;57706;56.326;43.882;2022-09-03T02:56:31;100965.72;;;9.20;76.87
70302;BME280;57706;56.326;43.882;2022-09-03T02:58:57;100975.66;;;9.26;76.69
70302;BME280;57706;56.326;43.882;2022-09-03T03:01:23;100978.94;;;9.18;76.72
70302;BME280;57706;56.326;43.882;2022-09-03T03:03:49;100984.19;;;9.08;76.96
70302;BME280;57706;56.326;43.882;2022-09-03T03:06:15;100988.34;;;9.11;77.01
70302;BME280;57706;56.326;43.882;2022-09-03T03:08:40;100996.75;;;9.15;76.86
70302;BME280;57706;56.326;43.882;2022-09-03T03:11:08;101006.41;;;9.24;76.38
70302;BME280;57706;56.326;43.882;2022-09-03T03:13:34;101014.03;;;9.27;75.92
70302;BME280;57706;56.326;43.882;2022-09-03T03:16:03;101008.78;;;9.27;75.17
70302;BME280;57706;56.326;43.882;2022-09-03T03:18:49;101012.63;;;9.23;75.12
70302;BME280;57706;56.326;43.882;2022-09-03T03:21:18;101023.69;;;9.36;74.54
70302;BME280;57706;56.326;43.882;2022-09-03T03:23:44;101016.75;;;9.55;73.90
70302;BME280;57706;56.326;43.882;2022-09-03T03:26:13;101009.56;;;9.57;73.66
70302;BME280;57706;56.326;43.882;2022-09-03T03:28:39;101008.75;;;9.57;73.23
70302;BME280;57706;56.326;43.882;2022-09-03T03:31:08;101016.88;;;9.63;73.11
70302;BME280;57706;56.326;43.882;2022-09-03T03:33:36;101022.00;;;9.55;73.54
70302;BME280;57706;56.326;43.882;2022-09-03T03:36:21;101029.19;;;9.53;73.70
70302;BME280;57706;56.326;43.882;2022-09-03T03:38:48;101030.03;;;9.44;73.45
70302;BME280;57706;56.326;43.882;2022-09-03T03:41:19;101032.38;;;9.47;73.57
70302;BME280;57706;56.326;43.882;2022-09-03T03:43:56;101037.75;;;9.55;72.98
70302;BME280;57706;56.326;43.882;2022-09-03T03:46:23;101028.06;;;9.66;72.74
70302;BME280;57706;56.326;43.882;2022-09-03T03:48:51;101030.56;;;9.57;73.26
70302;BME280;57706;56.326;43.882;2022-09-03T03:51:17;101038.03;;;9.42;73.55
70302;BME280;57706;56.326;43.882;2022-09-03T03:53:44;101044.66;;;9.56;73.41
70302;BME280;57706;56.326;43.882;2022-09-03T03:56:12;101043.38;;;9.70;72.72
70302;BME280;57706;56.326;43.882;2022-09-03T03:58:39;101049.06;;;9.66;72.64
70302;BME280;57706;56.326;43.882;2022-09-03T04:01:18;101048.78;;;9.69;72.43
70302;BME280;57706;56.326;43.882;2022-09-03T04:03:44;101049.06;;;9.66;72.87
70302;BME280;57706;56.326;43.882;2022-09-03T04:06:14;101058.56;;;9.86;71.89
70302;BME280;57706;56.326;43.882;2022-09-03T04:08:41;101053.03;;;9.89;71.93
70302;BME280;57706;56.326;43.882;2022-09-03T04:11:09;101054.00;;;9.78;72.38
70302;BME280;57706;56.326;43.882;2022-09-03T04:13:38;101058.13;;;9.91;71.62
70302;BME280;57706;56.326;43.882;2022-09-03T04:16:10;101062.28;;;9.84;71.72
70302;BME280;57706;56.326;43.882;2022-09-03T04:18:37;101066.44;;;9.86;71.58
70302;BME280;57706;56.326;43.882;2022-09-03T04:21:06;101078.31;;;9.90;71.69
70302;BME280;57706;56.326;43.882;2022-09-03T04:23:52;101069.75;;;9.98;71.47
70302;BME280;57706;56.326;43.882;2022-09-03T04:26:21;101070.72;;;10.35;70.10
70302;BME280;57706;56.326;43.882;2022-09-03T04:28:48;101068.25;;;10.43;69.37
70302;BME280;57706;56.326;43.882;2022-09-03T04:31:15;101079.00;;;10.40;69.59
70302;BME280;57706;56.326;43.882;2022-09-03T04:33:41;101089.28;;;10.24;69.79
70302;BME280;57706;56.326;43.882;2022-09-03T04:36:18;101079.28;;;10.37;69.59
70302;BME280;57706;56.326;43.882;2022-09-03T04:38:49;101085.66;;;10.44;68.80
70302;BME280;57706;56.326;43.882;2022-09-03T04:41:22;101080.50;;;10.53;68.79
70302;BME280;57706;56.326;43.882;2022-09-03T04:43:54;101089.28;;;10.71;68.09
70302;BME280;57706;56.326;43.882;2022-09-03T04:46:22;101086.69;;;10.90;67.38
70302;BME280;57706;56.326;43.882;2022-09-03T04:48:50;101090.84;;;10.92;66.95
70302;BME280;57706;56.326;43.882;2022-09-03T04:51:26;101090.19;;;11.26;65.15
70302;BME280;57706;56.326;43.882;2022-09-03T04:53:57;101079.25;;;11.76;63.64
70302;BME280;57706;56.326;43.882;2022-09-03T04:56:29;101087.19;;;12.29;62.31
70302;BME280;57706;56.326;43.882;2022-09-03T04:59:01;101084.13;;;12.42;61.58
70302;BME280;57706;56.326;43.882;2022-09-03T05:01:30;101094.91;;;12.57;60.46
70302;BME280;57706;56.326;43.882;2022-09-03T05:03:56;101094.88;;;12.91;59.51
70302;BME280;57706;56.326;43.882;2022-09-03T05:06:41;101100.66;;;12.52;59.79
70302;BME280;57706;56.326;43.882;2022-09-03T05:09:07;101103.63;;;12.57;59.44
70302;BME280;57706;56.326;43.882;2022-09-03T05:11:33;101102.75;;;12.83;59.16
70302;BME280;57706;56.326;43.882;2022-09-03T05:13:59;101109.25;;;13.14;58.25
70302;BME280;57706;56.326;43.882;2022-09-03T05:16:26;101104.16;;;13.20;58.06
70302;BME280;57706;56.326;43.882;2022-09-03T05:18:55;101103.41;;;13.45;57.37
70302;BME280;57706;56.326;43.882;2022-09-03T05:21:21;101112.44;;;13.42;56.69
70302;BME280;57706;56.326;43.882;2022-09-03T05:23:49;101117.69;;;13.26;57.49
70302;BME280;57706;56.326;43.882;2022-09-03T05:26:20;101111.78;;;13.48;56.62
70302;BME280;57706;56.326;43.882;2022-09-03T05:28:47;101116.44;;;13.55;55.65
70302;BME280;57706;56.326;43.882;2022-09-03T05:31:17;101122.28;;;13.15;56.82
70302;BME280;57706;56.326;43.882;2022-09-03T05:33:49;101117.63;;;12.92;57.52
70302;BME280;57706;56.326;43.882;2022-09-03T05:36:21;101113.84;;;12.95;57.62
70302;BME280;57706;56.326;43.882;2022-09-03T05:38:51;101130.03;;;13.17;56.72
70302;BME280;57706;56.326;43.882;2022-09-03T05:41:21;101132.84;;;13.24;56.93
70302;BME280;57706;56.326;43.882;2022-09-03T05:43:48;101129.97;;;12.57;57.19
70302;BME280;57706;56.326;43.882;2022-09-03T05:46:22;101139.53;;;12.50;57.86
70302;BME280;57706;56.326;43.882;2022-09-03T05:48:52;101138.47;;;12.34;58.21
70302;BME280;57706;56.326;43.882;2022-09-03T05:51:18;101145.00;;;12.57;57.87
70302;BME280;57706;56.326;43.882;2022-09-03T05:53:46;101146.50;;;12.59;58.13
70302;BME280;57706;56.326;43.882;2022-09-03T05:56:15;101148.16;;;12.60;58.31
70302;BME280;57706;56.326;43.882;2022-09-03T05:58:49;101156.34;;;12.57;58.07
70302;BME280;57706;56.326;43.882;2022-09-03T06:01:18;101157.25;;;12.39;58.87
70302;BME280;57706;56.326;43.882;2022-09-03T06:03:47;101161.53;;;12.41;58.41
70302;BME280;57706;56.326;43.882;2022-09-03T06:06:13;101162.13;;;12.26;57.97
70302;BME280;57706;56.326;43.882;2022-09-03T06:08:40;101158.97;;;12.22;58.23
70302;BME280;57706;56.326;43.882;2022-09-03T06:11:07;101166.19;;;12.47;57.28
70302;BME280;57706;56.326;43.882;2022-09-03T06:13:33;101169.84;;;12.54;56.43
70302;BME280;57706;56.326;43.882;2022-09-03T06:16:02;101170.13;;;12.43;57.05
70302;BME280;57706;56.326;43.882;2022-09-03T06:18:47;101159.78;;;12.49;56.80
70302;BME280;57706;56.326;43.882;2022-09-03T06:21:14;101167.06;;;12.56;56.54
70302;BME280;57706;56.326;43.882;2022-09-03T06:23:40;101167.31;;;12.71;56.51
70302;BME280;57706;56.326;43.882;2022-09-03T06:26:12;101171.31;;;12.75;56.45
70302;BME280;57706;56.326;43.882;2022-09-03T06:28:42;101165.69;;;12.78;56.13
70302;BME280;57706;56.326;43.882;2022-09-03T06:31:11;101186.22;;;12.92;55.88
70302;BME280;57706;56.326;43.882;2022-09-03T06:33:38;101170.50;;;13.34;55.14
70302;BME280;57706;56.326;43.882;2022-09-03T06:36:06;101178.53;;;13.67;53.64
70302;BME280;57706;56.326;43.882;2022-09-03T06:38:34;101176.88;;;14.16;52.35
70302;BME280;57706;56.326;43.882;2022-09-03T06:41:06;101177.66;;;13.58;53.59
70302;BME280;57706;56.326;43.882;2022-09-03T06:43:34;101179.19;;;13.77;53.45
70302;BME280;57706;56.326;43.882;2022-09-03T06:46:11;101191.03;;;14.23;52.30
70302;BME280;57706;56.326;43.882;2022-09-03T06:48:38;101178.91;;;14.62;50.87
70302;BME280;57706;56.326;43.882;2022-09-03T06:51:23;101184.28;;;14.94;49.89
70302;BME280;57706;56.326;43.882;2022-09-03T06:53:52;101181.94;;;15.07;49.43
70302;BME280;57706;56.326;43.882;2022-09-03T06:56:21;101179.88;;;15.18;49.40
70302;BME280;57706;56.326;43.882;2022-09-03T06:58:52;101179.13;;;14.44;51.09
70302;BME280;57706;56.326;43.882;2022-09-03T07:01:24;101185.78;;;14.07;52.30
70302;BME280;57706;56.326;43.882;2022-09-03T07:03:55;101187.44;;;13.99;51.90
70302;BME280;57706;56.326;43.882;2022-09-03T07:06:23;101186.19;;;14.60;49.68
70302;BME280;57706;56.326;43.882;2022-09-03T07:08:49;101181.97;;;15.54;47.37
70302;BME280;57706;56.326;43.882;2022-09-03T07:11:17;101185.28;;;16.03;46.61
70302;BME280;57706;56.326;43.882;2022-09-03T07:13:46;101190.38;;;16.58;44.52
70302;BME280;57706;56.326;43.882;2022-09-03T07:16:17;101181.38;;;17.63;42.58
70302;BME280;57706;56.326;43.882;2022-09-03T07:18:44;101180.31;;;18.29;41.08
70302;BME280;57706;56.326;43.882;2022-09-03T07:21:18;101178.88;;;18.62;40.92
70302;BME280;57706;56.326;43.882;2022-09-03T07:23:45;101180.75;;;18.33;41.02
70302;BME280;57706;56.326;43.882;2022-09-03T07:26:40;101177.22;;;17.53;42.04
70302;BME280;57706;56.326;43.882;2022-09-03T07:29:09;101178.19;;;16.93;44.13
70302;BME280;57706;56.326;43.882;2022-09-03T07:31:38;101176.66;;;17.36;43.64
70302;BME280;57706;56.326;43.882;2022-09-03T07:34:06;101181.28;;;18.50;41.30
70302;BME280;57706;56.326;43.882;2022-09-03T07:36:36;101183.53;;;18.18;41.42
70302;BME280;57706;56.326;43.882;2022-09-03T07:39:04;101175.25;;;18.06;42.00
70302;BME280;57706;56.326;43.882;2022-09-03T07:41:30;101178.97;;;18.11;41.39
70302;BME280;57706;56.326;43.882;2022-09-03T07:43:59;101188.75;;;17.60;42.24
70302;BME280;57706;56.326;43.882;2022-09-03T07:46:48;101192.66;;;17.43;42.03
70302;BME280;57706;56.326;43.882;2022-09-03T07:49:33;101184.75;;;16.98;43.05
70302;BME280;57706;56.326;43.882;2022-09-03T07:52:00;101185.88;;;15.66;46.20
70302;BME280;57706;56.326;43.882;2022-09-03T07:54:27;101197.72;;;15.24;47.26
70302;BME280;57706;56.326;43.882;2022-09-03T07:56:53;101197.50;;;15.02;47.67
70302;BME280;57706;56.326;43.882;2022-09-03T07:59:19;101190.28;;;15.98;46.14
70302;BME280;57706;56.326;43.882;2022-09-03T08:01:47;101191.81;;;18.71;39.47
70302;BME280;57706;56.326;43.882;2022-09-03T08:04:13;101188.44;;;21.07;35.32
70302;BME280;57706;56.326;43.882;2022-09-03T08:06:39;101196.88;;;20.25;37.42
70302;BME280;57706;56.326;43.882;2022-09-03T08:09:10;101205.13;;;19.07;39.19
70302;BME280;57706;56.326;43.882;2022-09-03T08:11:40;101211.88;;;17.08;41.71
70302;BME280;57706;56.326;43.882;2022-09-03T08:14:09;101197.50;;;16.42;43.97
70302;BME280;57706;56.326;43.882;2022-09-03T08:16:41;101200.69;;;17.28;42.88
70302;BME280;57706;56.326;43.882;2022-09-03T08:19:07;101194.75;;;17.69;41.40
70302;BME280;57706;56.326;43.882;2022-09-03T08:21:34;101206.84;;;17.50;42.01
70302;BME280;57706;56.326;43.882;2022-09-03T08:24:01;101200.25;;;16.94;42.97
70302;BME280;57706;56.326;43.882;2022-09-03T08:26:35;101210.69;;;16.81;43.44
70302;BME280;57706;56.326;43.882;2022-09-03T08:29:01;101206.66;;;16.55;43.36
70302;BME280;57706;56.326;43.882;2022-09-03T08:31:45;101217.44;;;16.38;43.85
70302;BME280;57706;56.326;43.882;2022-09-03T08:34:11;101214.66;;;17.37;42.44
70302;BME280;57706;56.326;43.882;2022-09-03T08:36:39;101231.94;;;18.06;40.92
70302;BME280;57706;56.326;43.882;2022-09-03T08:39:09;101222.66;;;18.02;39.82
70302;BME280;57706;56.326;43.882;2022-09-03T08:44:29;101222.75;;;20.11;36.82
70302;BME280;57706;56.326;43.882;2022-09-03T08:50:03;101225.13;;;20.66;34.18
70302;BME280;57706;56.326;43.882;2022-09-03T08:55:16;101223.81;;;19.20;36.61
70302;BME280;57706;56.326;43.882;2022-09-03T08:57:49;101232.47;;;18.52;38.36
70302;BME280;57706;56.326;43.882;2022-09-03T09:00:16;101229.47;;;20.54;34.74
70302;BME280;57706;56.326;43.882;2022-09-03T09:03:05;101214.41;;;27.55;24.00
70302;BME280;57706;56.326;43.882;2022-09-03T09:05:46;101211.63;;;28.15;21.96
70302;BME280;57706;56.326;43.882;2022-09-03T09:23:05;101216.03;;;23.89;26.87
70302;BME280;57706;56.326;43.882;2022-09-03T09:25:33;101220.72;;;21.77;30.59
70302;BME280;57706;56.326;43.882;2022-09-03T09:28:12;101215.50;;;19.50;33.88
70302;BME280;57706;56.326;43.882;2022-09-03T09:30:41;101226.97;;;18.25;35.82
70302;BME280;57706;56.326;43.882;2022-09-03T09:33:29;101212.66;;;18.04;36.79
70302;BME280;57706;56.326;43.882;2022-09-03T09:36:08;101223.25;;;18.96;35.80
70302;BME280;57706;56.326;43.882;2022-09-03T09:38:37;101219.09;;;23.01;29.83
70302;BME280;57706;56.326;43.882;2022-09-03T09:41:20;101221.31;;;21.79;31.18
70302;BME280;57706;56.326;43.882;2022-09-03T09:43:59;101223.34;;;20.40;33.06
70302;BME280;57706;56.326;43.882;2022-09-03T09:46:35;101218.75;;;22.79;29.97
70302;BME280;57706;56.326;43.882;2022-09-03T09:49:01;101219.72;;;28.15;22.10
70302;BME280;57706;56.326;43.882;2022-09-03T09:51:29;101209.00;;;23.76;26.45
70302;BME280;57706;56.326;43.882;2022-09-03T09:54:01;101221.91;;;23.25;27.13
70302;BME280;57706;56.326;43.882;2022-09-03T09:56:28;101208.88;;;22.61;27.98
70302;BME280;57706;56.326;43.882;2022-09-03T09:59:05;101226.75;;;24.01;25.95
70302;BME280;57706;56.326;43.882;2022-09-03T10:01:31;101218.56;;;26.41;23.32
70302;BME280;57706;56.326;43.882;2022-09-03T10:03:59;101213.41;;;24.66;25.47
70302;BME280;57706;56.326;43.882;2022-09-03T10:06:33;101212.06;;;28.01;22.16
70302;BME280;57706;56.326;43.882;2022-09-03T10:09:23;101223.56;;;28.83;20.61
70302;BME280;57706;56.326;43.882;2022-09-03T10:15:10;101204.16;;;32.16;16.77
70302;BME280;57706;56.326;43.882;2022-09-03T10:20:30;101212.88;;;28.50;20.19
70302;BME280;57706;56.326;43.882;2022-09-03T10:24:12;101199.38;;;24.88;24.26
70302;BME280;57706;56.326;43.882;2022-09-03T10:26:06;101199.16;;;22.41;27.66
70302;BME280;57706;56.326;43.882;2022-09-03T10:28:36;101206.25;;;21.20;30.13
70302;BME280;57706;56.326;43.882;2022-09-03T10:34:43;101218.41;;;30.47;18.52
70302;BME280;57706;56.326;43.882;2022-09-03T10:40:04;101209.34;;;29.81;19.02
70302;BME280;57706;56.326;43.882;2022-09-03T10:42:59;101201.66;;;25.89;22.95
70302;BME280;57706;56.326;43.882;2022-09-03T10:49:01;101207.28;;;25.70;24.27
70302;BME280;57706;56.326;43.882;2022-09-03T10:52:00;101214.13;;;26.51;22.29
70302;BME280;57706;56.326;43.882;2022-09-03T10:54:38;101220.00;;;23.14;26.14
70302;BME280;57706;56.326;43.882;2022-09-03T11:00:12;101211.81;;;20.53;30.54
70302;BME280;57706;56.326;43.882;2022-09-03T11:08:08;101202.09;;;18.39;34.49
70302;BME280;57706;56.326;43.882;2022-09-03T11:10:40;101215.53;;;19.71;32.69
70302;BME280;57706;56.326;43.882;2022-09-03T11:16:24;101204.69;;;30.84;18.06
70302;BME280;57706;56.326;43.882;2022-09-03T11:18:59;101196.69;;;33.89;15.80
70302;BME280;57706;56.326;43.882;2022-09-03T11:21:29;101187.91;;;35.53;13.89
70302;BME280;57706;56.326;43.882;2022-09-03T11:24:26;101178.31;;;30.39;17.71
70302;BME280;57706;56.326;43.882;2022-09-03T11:27:04;101190.69;;;26.74;21.29
70302;BME280;57706;56.326;43.882;2022-09-03T11:29:43;101189.69;;;23.13;25.91
70302;BME280;57706;56.326;43.882;2022-09-03T11:32:17;101193.69;;;21.53;28.17
70302;BME280;57706;56.326;43.882;2022-09-03T11:34:49;101190.06;;;28.25;20.42
70302;BME280;57706;56.326;43.882;2022-09-03T11:37:17;101191.53;;;28.00;21.19
70302;BME280;57706;56.326;43.882;2022-09-03T11:39:43;101191.75;;;26.51;22.10
70302;BME280;57706;56.326;43.882;2022-09-03T11:44:50;101177.78;;;33.17;15.51
70302;BME280;57706;56.326;43.882;2022-09-03T11:49:49;101180.19;;;31.69;15.79
70302;BME280;57706;56.326;43.882;2022-09-03T11:52:30;101186.06;;;29.23;17.15
70302;BME280;57706;56.326;43.882;2022-09-03T11:55:06;101176.50;;;32.33;15.32
70302;BME280;57706;56.326;43.882;2022-09-03T11:57:39;101168.28;;;30.40;17.01
70302;BME280;57706;56.326;43.882;2022-09-03T12:02:46;101174.91;;;34.31;13.78
70302;BME280;57706;56.326;43.882;2022-09-03T12:05:20;101174.44;;;34.66;14.16
70302;BME280;57706;56.326;43.882;2022-09-03T12:10:40;101170.63;;;32.01;15.39
70302;BME280;57706;56.326;43.882;2022-09-03T12:16:18;101174.44;;;29.64;16.49
70302;BME280;57706;56.326;43.882;2022-09-03T12:18:46;101170.22;;;25.26;20.92
70302;BME280;57706;56.326;43.882;2022-09-03T12:21:15;101177.38;;;23.90;23.17
70302;BME280;57706;56.326;43.882;2022-09-03T12:23:44;101181.75;;;22.32;25.52
70302;BME280;57706;56.326;43.882;2022-09-03T12:26:19;101182.47;;;22.83;24.87
70302;BME280;57706;56.326;43.882;2022-09-03T12:28:53;101188.22;;;21.80;26.84
70302;BME280;57706;56.326;43.882;2022-09-03T12:31:23;101188.28;;;21.34;27.45
70302;BME280;57706;56.326;43.882;2022-09-03T12:33:58;101192.41;;;22.57;25.60
70302;BME280;57706;56.326;43.882;2022-09-03T12:36:34;101191.84;;;27.61;19.97
70302;BME280;57706;56.326;43.882;2022-09-03T12:39:09;101190.38;;;29.86;17.74
70302;BME280;57706;56.326;43.882;2022-09-03T12:41:35;101175.66;;;31.24;16.04
70302;BME280;57706;56.326;43.882;2022-09-03T12:44:02;101174.69;;;29.31;17.32
70302;BME280;57706;56.326;43.882;2022-09-03T12:46:30;101174.69;;;29.67;17.07
70302;BME280;57706;56.326;43.882;2022-09-03T12:48:58;101171.94;;;29.99;17.18
70302;BME280;57706;56.326;43.882;2022-09-03T12:51:38;101183.47;;;26.80;20.44
70302;BME280;57706;56.326;43.882;2022-09-03T12:54:05;101185.56;;;24.96;21.85
70302;BME280;57706;56.326;43.882;2022-09-03T12:56:34;101184.38;;;25.67;21.58
70302;BME280;57706;56.326;43.882;2022-09-03T12:59:09;101174.97;;;25.87;20.87
70302;BME280;57706;56.326;43.882;2022-09-03T13:01:54;101177.72;;;26.49;20.47
70302;BME280;57706;56.326;43.882;2022-09-03T13:04:24;101177.22;;;23.37;23.25
70302;BME280;57706;56.326;43.882;2022-09-03T13:09:39;101177.88;;;20.67;27.64
70302;BME280;57706;56.326;43.882;2022-09-03T13:12:07;101175.66;;;22.43;25.46
70302;BME280;57706;56.326;43.882;2022-09-03T13:14:47;101170.47;;;21.85;25.84
70302;BME280;57706;56.326;43.882;2022-09-03T13:33:20;101164.78;;;30.34;17.15
70302;BME280;57706;56.326;43.882;2022-09-03T13:41:38;101176.19;;;25.96;21.79
70302;BME280;57706;56.326;43.882;2022-09-03T13:44:19;101175.31;;;27.95;19.58
70302;BME280;57706;56.326;43.882;2022-09-03T13:46:49;101161.72;;;28.28;19.48
70302;BME280;57706;56.326;43.882;2022-09-03T13:55:13;101170.88;;;28.85;18.92
70302;BME280;57706;56.326;43.882;2022-09-03T13:57:48;101156.28;;;28.87;18.48
70302;BME280;57706;56.326;43.882;2022-09-03T14:00:25;101156.28;;;29.80;18.28
70302;BME280;57706;56.326;43.882;2022-09-03T14:03:37;101162.50;;;26.87;20.67
70302;BME280;57706;56.326;43.882;2022-09-03T14:06:36;101151.88;;;28.70;19.04
70302;BME280;57706;56.326;43.882;2022-09-03T14:22:44;101156.25;;;19.82;29.69
70302;BME280;57706;56.326;43.882;2022-09-03T14:25:24;101150.97;;;18.99;31.07
70302;BME280;57706;56.326;43.882;2022-09-03T14:27:51;101155.72;;;18.62;31.99
70302;BME280;57706;56.326;43.882;2022-09-03T14:30:32;101151.94;;;18.08;33.19
70302;BME280;57706;56.326;43.882;2022-09-03T14:36:04;101155.97;;;17.53;34.15
70302;BME280;57706;56.326;43.882;2022-09-03T14:38:39;101148.94;;;17.45;34.09
70302;BME280;57706;56.326;43.882;2022-09-03T15:05:14;101161.63;;;15.23;38.24
70302;BME280;57706;56.326;43.882;2022-09-03T15:13:17;101165.59;;;14.95;39.22
70302;BME280;57706;56.326;43.882;2022-09-03T15:18:25;101168.84;;;14.57;40.02
70302;BME280;57706;56.326;43.882;2022-09-03T15:26:50;101169.09;;;14.14;41.27
70302;BME280;57706;56.326;43.882;2022-09-03T15:38:07;101164.03;;;13.12;44.30
70302;BME280;57706;56.326;43.882;2022-09-03T15:43:30;101172.69;;;12.96;45.04
70302;BME280;57706;56.326;43.882;2022-09-03T15:45:59;101175.25;;;12.79;45.33
70302;BME280;57706;56.326;43.882;2022-09-03T15:51:27;101168.09;;;12.63;46.81
70302;BME280;57706;56.326;43.882;2022-09-03T15:53:59;101174.72;;;12.41;47.12
70302;BME280;57706;56.326;43.882;2022-09-03T15:59:05;101174.88;;;12.13;48.58
70302;BME280;57706;56.326;43.882;2022-09-03T16:01:51;101173.81;;;11.87;49.51
70302;BME280;57706;56.326;43.882;2022-09-03T16:07:29;101181.88;;;11.86;50.45
70302;BME280;57706;56.326;43.882;2022-09-03T16:10:39;101185.03;;;11.71;50.81
70302;BME280;57706;56.326;43.882;2022-09-03T16:16:10;101180.06;;;11.50;52.51
70302;BME280;57706;56.326;43.882;2022-09-03T16:18:46;101188.03;;;11.58;52.11
70302;BME280;57706;56.326;43.882;2022-09-03T16:21:25;101185.63;;;11.47;52.80
70302;BME280;57706;56.326;43.882;2022-09-03T16:24:16;101189.28;;;11.36;53.25
70302;BME280;57706;56.326;43.882;2022-09-03T16:26:50;101191.00;;;11.27;53.29
70302;BME280;57706;56.326;43.882;2022-09-03T16:29:25;101190.75;;;11.20;53.67
70302;BME280;57706;56.326;43.882;2022-09-03T16:32:04;101193.69;;;11.17;53.91
70302;BME280;57706;56.326;43.882;2022-09-03T16:37:52;101198.25;;;11.15;54.15
70302;BME280;57706;56.326;43.882;2022-09-03T16:40:51;101205.28;;;10.96;54.60
70302;BME280;57706;56.326;43.882;2022-09-03T16:46:24;101210.03;;;10.83;55.75
70302;BME280;57706;56.326;43.882;2022-09-03T17:00:09;101225.88;;;10.63;56.49
70302;BME280;57706;56.326;43.882;2022-09-03T17:03:02;101222.09;;;10.76;56.59
70302;BME280;57706;56.326;43.882;2022-09-03T17:08:41;101232.44;;;10.87;55.94
70302;BME280;57706;56.326;43.882;2022-09-03T17:25:36;101230.31;;;10.53;57.70
70302;BME280;57706;56.326;43.882;2022-09-03T17:31:14;101229.47;;;10.52;58.07
70302;BME280;57706;56.326;43.882;2022-09-03T17:36:16;101222.84;;;10.38;59.15
70302;BME280;57706;56.326;43.882;2022-09-03T17:41:52;101226.47;;;10.47;59.28
70302;BME280;57706;56.326;43.882;2022-09-03T17:49:40;101217.47;;;10.30;59.80